Asti, California
Current Conditions -  °F | °C
As of 10:00 AM on Saturday 25 Oct 2014 (Local Time) from KSTS Reporting Station
Overcast Overcast  
Wind Chill: 63°   Ceiling: 4200
Heat Index: 63°   Visibility: 10mi
Dew Point: 61°   Wind: 9mph
Humidity: 94%   Direction: 190°S
Pressure: 29.98"   Gusts: NA
Location:  38.7954°N, 123.01°W
Report Text: KSTS 251700Z 19008KT 10SM SCT019 BKN042 OVC050 17/16 A2998 RMK AO2
Loading
Personal Weather Stations






























Interactive Weather Map
Tropical Storm Tracking
New forecast layout! Learn more

10-Day Weather Forecast

Advertisements
Track Severe Weather on mobile